createdAt,value
2018-08-25T00:00:02.075Z,11.87
2018-08-25T00:02:32.369Z,12.40
2018-08-25T00:05:02.390Z,11.73
2018-08-25T00:07:32.302Z,12.70
2018-08-25T00:10:02.237Z,12.67
2018-08-25T00:12:32.189Z,12.27
2018-08-25T00:15:02.442Z,12.27
2018-08-25T00:17:32.304Z,12.13
2018-08-25T00:20:02.132Z,12.30
2018-08-25T00:22:33.884Z,11.13
2018-08-25T00:25:04.178Z,10.67
2018-08-25T00:27:34.250Z,10.77
2018-08-25T00:30:04.850Z,10.03
2018-08-25T00:32:34.732Z,9.17
2018-08-25T00:35:04.629Z,10.03
2018-08-25T00:37:34.675Z,9.73
2018-08-25T00:40:05.293Z,9.18
2018-08-25T00:42:35.141Z,9.40
2018-08-25T00:45:05.290Z,9.17
2018-08-25T00:47:35.193Z,9.53
2018-08-25T00:50:05.320Z,9.07
2018-08-25T00:52:35.172Z,9.57
2018-08-25T00:55:05.190Z,9.63
2018-08-25T00:57:35.273Z,9.53
2018-08-25T01:00:05.631Z,9.30
2018-08-25T01:02:35.665Z,9.23
2018-08-25T01:05:05.558Z,9.23
2018-08-25T01:07:35.465Z,9.53
2018-08-25T01:10:05.481Z,9.60
2018-08-25T01:12:35.368Z,10.13
2018-08-25T01:15:05.289Z,9.53
2018-08-25T01:17:35.219Z,9.63
2018-08-25T01:20:05.177Z,9.07
2018-08-25T01:22:35.246Z,9.17
2018-08-25T01:25:05.487Z,9.47
2018-08-25T01:27:35.519Z,9.63
2018-08-25T01:30:05.581Z,9.77
2018-08-25T01:32:35.711Z,10.03
2018-08-25T01:35:05.645Z,11.03
2018-08-25T01:37:35.441Z,10.63
2018-08-25T01:40:05.549Z,10.77
2018-08-25T01:42:35.398Z,11.83
2018-08-25T01:45:06.261Z,10.07
2018-08-25T01:47:36.337Z,9.67
2018-08-25T01:50:06.397Z,9.03
2018-08-25T01:52:36.277Z,8.83
2018-08-25T01:55:06.725Z,9.00
2018-08-25T01:57:36.538Z,8.27
2018-08-25T02:00:07.321Z,8.23
2018-08-25T02:02:37.234Z,8.57
2018-08-25T02:05:07.346Z,8.30
2018-08-25T02:07:37.212Z,8.37
2018-08-25T02:10:07.270Z,8.57
2018-08-25T02:12:37.425Z,8.23
2018-08-25T02:15:07.743Z,8.43
2018-08-25T02:17:37.981Z,8.88
2018-08-25T02:20:08.282Z,9.23
2018-08-25T02:22:38.102Z,9.15
2018-08-25T02:25:08.273Z,8.73
2018-08-25T02:27:38.839Z,9.78
2018-08-25T02:30:09.057Z,8.38
2018-08-25T02:32:39.072Z,9.17
2018-08-25T02:35:08.938Z,9.50
2018-08-25T02:37:38.889Z,9.03
2018-08-25T02:40:08.836Z,9.37
2018-08-25T02:42:38.878Z,9.70
2018-08-25T02:45:08.767Z,9.83
2018-08-25T02:47:38.585Z,9.70
2018-08-25T02:50:09.029Z,9.53
2018-08-25T02:52:38.842Z,10.10
2018-08-25T02:55:09.159Z,9.60
2018-08-25T02:57:39.097Z,10.20
2018-08-25T03:00:08.968Z,9.50
2018-08-25T03:02:40.064Z,9.20
2018-08-25T03:05:09.862Z,9.47
2018-08-25T03:07:41.274Z,9.66
2018-08-25T03:10:12.110Z,10.08
2018-08-25T03:12:43.590Z,9.98
2018-08-25T03:15:14.099Z,9.85
2018-08-25T03:17:45.228Z,10.25
2018-08-25T03:20:16.009Z,10.95
2018-08-25T03:22:47.026Z,9.25
2018-08-25T03:25:17.093Z,9.63
2018-08-25T03:27:48.233Z,10.03
2018-08-25T03:30:19.049Z,9.25
2018-08-25T03:32:50.289Z,10.13
2018-08-25T03:35:21.118Z,10.28
2018-08-25T03:37:52.433Z,10.65
2018-08-25T03:40:23.147Z,9.88
2018-08-25T03:42:54.284Z,9.35
2018-08-25T03:45:25.134Z,10.48
2018-08-25T03:47:56.169Z,10.95
2018-08-25T03:50:26.965Z,10.05
2018-08-25T03:52:58.170Z,10.90
2018-08-25T03:55:29.077Z,10.43
2018-08-25T03:58:00.106Z,10.75
2018-08-25T04:00:33.469Z,10.95
2018-08-25T04:03:04.063Z,10.80
2018-08-25T04:05:33.941Z,10.75
2018-08-25T04:08:04.015Z,11.05
2018-08-25T04:10:34.946Z,10.48
2018-08-25T04:13:06.300Z,11.74
2018-08-25T04:15:37.482Z,10.80
2018-08-25T04:18:08.092Z,10.85
2018-08-25T04:20:39.207Z,11.08
2018-08-25T04:23:10.049Z,10.35
2018-08-25T04:25:41.194Z,10.30
2018-08-25T04:28:12.364Z,10.78
2018-08-25T04:30:43.362Z,11.60
2018-08-25T04:33:14.241Z,11.08
2018-08-25T04:35:45.221Z,11.53
2018-08-25T04:38:16.085Z,11.65
2018-08-25T04:40:47.381Z,13.08
2018-08-25T04:43:18.034Z,10.58
2018-08-25T04:45:49.105Z,12.30
2018-08-25T04:48:19.933Z,11.73
2018-08-25T04:50:51.128Z,12.28
2018-08-25T04:53:21.853Z,11.00
2018-08-25T04:55:53.357Z,12.08
2018-08-25T04:58:23.141Z,11.07
2018-08-25T05:00:54.519Z,11.75
2018-08-25T05:03:25.044Z,12.15
2018-08-25T05:05:56.202Z,11.93
2018-08-25T05:08:27.209Z,11.30
2018-08-25T05:10:58.196Z,11.28
2018-08-25T05:13:29.074Z,12.25
2018-08-25T05:16:00.104Z,12.85
2018-08-25T05:18:31.353Z,11.88
2018-08-25T05:21:02.449Z,12.98
2018-08-25T05:23:33.085Z,12.37
2018-08-25T05:26:04.204Z,13.45
2018-08-25T05:28:35.049Z,12.60
2018-08-25T05:31:06.132Z,13.08
2018-08-25T05:33:37.102Z,13.70
2018-08-25T05:36:08.254Z,13.60
2018-08-25T05:38:39.290Z,12.90
2018-08-25T05:41:10.553Z,13.93
2018-08-25T05:43:41.140Z,13.13
2018-08-25T05:46:11.093Z,13.80
2018-08-25T05:48:42.030Z,13.68
2018-08-25T05:51:13.721Z,12.65
2018-08-25T05:53:45.190Z,13.24
2018-08-25T05:56:15.214Z,13.87
2018-08-25T05:58:46.309Z,13.72
2018-08-25T06:01:17.088Z,13.40
2018-08-25T06:03:48.177Z,14.00
2018-08-25T06:06:18.981Z,12.73
2018-08-25T06:08:50.506Z,13.97
2018-08-25T06:11:21.032Z,13.75
2018-08-25T06:13:51.990Z,13.08
2018-08-25T06:16:22.845Z,13.18
2018-08-25T06:18:54.494Z,13.76
2018-08-25T06:21:26.692Z,12.24
2018-08-25T06:23:56.778Z,13.40
2018-08-25T06:26:27.116Z,13.17
2018-08-25T06:28:58.680Z,14.73
2018-08-25T06:31:29.589Z,13.68
2018-08-25T06:34:00.670Z,13.30
2018-08-25T06:36:31.311Z,12.58
2018-08-25T06:39:10.349Z,13.48
2018-08-25T06:41:40.205Z,13.37
2018-08-25T06:44:09.973Z,12.37
2018-08-25T06:46:39.875Z,11.37
2018-08-25T06:49:10.602Z,12.33
2018-08-25T06:51:41.008Z,12.50
2018-08-25T06:54:10.873Z,12.60
2018-08-25T06:56:40.916Z,13.30
2018-08-25T06:59:10.896Z,13.13
2018-08-25T07:01:40.886Z,12.75
2018-08-25T07:04:12.822Z,12.54
2018-08-25T07:06:43.212Z,12.38
2018-08-25T07:09:14.546Z,11.93
2018-08-25T07:11:45.112Z,12.50
2018-08-25T07:14:16.234Z,13.50
2018-08-25T07:16:47.061Z,12.75
2018-08-25T07:19:18.213Z,12.93
2018-08-25T07:21:49.009Z,12.25
2018-08-25T07:24:20.188Z,13.53
2018-08-25T07:26:51.082Z,13.62
2018-08-25T07:29:22.054Z,13.10
2018-08-25T07:31:52.591Z,12.70
2018-08-25T07:34:23.549Z,13.45
2018-08-25T07:36:54.102Z,13.78
2018-08-25T07:39:25.163Z,12.90
2018-08-25T07:41:55.961Z,12.43
2018-08-25T07:44:27.077Z,12.30
2018-08-25T07:46:57.924Z,12.03
2018-08-25T07:49:29.053Z,12.37
2018-08-25T07:51:59.960Z,11.55
2018-08-25T07:54:32.686Z,12.33
2018-08-25T07:57:03.307Z,11.98
2018-08-25T07:59:33.299Z,11.27
2018-08-25T08:02:04.385Z,11.65
2018-08-25T08:04:35.669Z,11.60
2018-08-25T08:07:06.616Z,11.68
2018-08-25T08:09:37.257Z,11.05
2018-08-25T08:12:08.474Z,11.63
2018-08-25T08:14:39.545Z,11.57
2018-08-25T08:17:10.511Z,11.95
2018-08-25T08:19:41.568Z,11.53
2018-08-25T08:22:12.100Z,10.87
2018-08-25T08:24:42.113Z,11.70
2018-08-25T08:27:14.467Z,11.60
2018-08-25T08:29:44.240Z,11.97
2018-08-25T08:32:15.255Z,11.45
2018-08-25T08:34:46.162Z,10.80
2018-08-25T08:37:17.178Z,10.43
2018-08-25T08:39:47.990Z,11.00
2018-08-25T08:42:19.039Z,10.88
2018-08-25T08:44:50.302Z,10.03
2018-08-25T08:47:21.578Z,10.10
2018-08-25T08:49:52.250Z,9.54
2018-08-25T08:52:23.689Z,10.18
2018-08-25T08:54:54.261Z,10.10
2018-08-25T08:57:25.162Z,10.78
2018-08-25T08:59:56.535Z,9.90
2018-08-25T09:02:27.435Z,10.35
2018-08-25T09:04:58.095Z,10.78
2018-08-25T09:07:29.187Z,10.98
2018-08-25T09:10:00.048Z,10.18
2018-08-25T09:12:31.045Z,11.03
2018-08-25T09:15:00.909Z,10.03
2018-08-25T09:17:32.519Z,10.24
2018-08-25T09:20:03.074Z,9.80
2018-08-25T09:22:34.119Z,9.48
2018-08-25T09:25:04.971Z,9.93
2018-08-25T09:27:36.170Z,8.90
2018-08-25T09:30:07.235Z,9.90
2018-08-25T09:32:38.146Z,9.60
2018-08-25T09:35:09.142Z,9.58
2018-08-25T09:37:40.140Z,8.33
2018-08-25T09:40:10.933Z,9.53
2018-08-25T09:42:42.358Z,8.52
2018-08-25T09:45:13.067Z,8.28
2018-08-25T09:47:44.130Z,9.13
2018-08-25T09:50:15.170Z,8.50
2018-08-25T09:52:46.237Z,9.98
2018-08-25T09:55:17.099Z,9.00
2018-08-25T09:57:48.158Z,9.30
2018-08-25T10:00:18.957Z,9.88
2018-08-25T10:02:51.264Z,8.20
2018-08-25T10:05:22.721Z,8.18
2018-08-25T10:07:52.959Z,11.13
2018-08-25T10:10:23.082Z,10.10
2018-08-25T10:12:54.066Z,9.15
2018-08-25T10:15:24.873Z,8.78
2018-08-25T10:17:56.481Z,9.74
2018-08-25T10:20:27.048Z,8.40
2018-08-25T10:22:59.241Z,9.55
2018-08-25T10:25:29.509Z,9.80
2018-08-25T10:28:00.384Z,9.28
2018-08-25T10:30:31.716Z,9.95
2018-08-25T10:33:03.965Z,9.30
2018-08-25T10:35:33.910Z,10.37
2018-08-25T10:38:03.885Z,10.00
2018-08-25T10:40:36.562Z,9.98
2018-08-25T10:43:06.440Z,9.77
2018-08-25T10:45:38.262Z,9.72
2018-08-25T10:48:08.423Z,9.33
2018-08-25T10:50:40.180Z,9.63
2018-08-25T10:53:13.839Z,9.17
2018-08-25T10:55:43.987Z,9.55
2018-08-25T10:58:13.807Z,9.47
2018-08-25T11:00:43.903Z,9.77
2018-08-25T11:03:14.081Z,9.95
2018-08-25T11:05:44.897Z,8.90
2018-08-25T11:08:16.268Z,9.20
2018-08-25T11:10:47.502Z,9.30
2018-08-25T11:13:18.154Z,9.60
2018-08-25T11:15:49.181Z,9.73
2018-08-25T11:18:20.615Z,8.23
2018-08-25T11:20:51.125Z,9.25
2018-08-25T11:23:21.989Z,10.32
2018-08-25T11:25:53.092Z,9.53
2018-08-25T11:28:24.119Z,9.25
2018-08-25T11:30:55.085Z,9.30
2018-08-25T11:33:26.034Z,9.20
2018-08-25T11:35:56.954Z,8.93
2018-08-25T11:38:28.188Z,9.15
2018-08-25T11:41:00.051Z,9.54
2018-08-25T11:43:30.161Z,10.30
2018-08-25T11:46:00.956Z,9.88
2018-08-25T11:48:32.151Z,9.38
2018-08-25T11:51:03.074Z,9.18
2018-08-25T11:53:34.190Z,9.95
2018-08-25T11:56:04.962Z,10.18
2018-08-25T11:58:36.113Z,10.43
2018-08-25T12:01:07.300Z,10.80
2018-08-25T12:03:38.179Z,10.40
2018-08-25T12:06:10.157Z,10.05
2018-08-25T12:08:40.096Z,9.93
2018-08-25T12:11:10.812Z,10.98
2018-08-25T12:13:42.241Z,10.38
2018-08-25T12:16:13.039Z,10.98
2018-08-25T12:18:44.053Z,10.88
2018-08-25T12:21:14.881Z,10.63
2018-08-25T12:23:46.325Z,10.68
2018-08-25T12:26:17.161Z,10.95
2018-08-25T12:28:48.375Z,10.58
2018-08-25T12:31:19.270Z,11.60
2018-08-25T12:33:50.463Z,11.28
2018-08-25T12:36:21.178Z,12.18
2018-08-25T12:38:51.128Z,12.93
2018-08-25T12:41:22.030Z,11.75
2018-08-25T12:43:52.906Z,12.63
2018-08-25T12:46:24.629Z,11.95
2018-08-25T12:48:55.258Z,12.25
2018-08-25T12:51:26.202Z,13.15
2018-08-25T12:53:57.021Z,13.62
2018-08-25T12:56:29.765Z,12.58
2018-08-25T12:58:59.616Z,11.60
2018-08-25T13:01:30.512Z,12.00
2018-08-25T13:04:01.095Z,12.05
2018-08-25T13:06:32.093Z,11.55
2018-08-25T13:09:03.113Z,13.68
2018-08-25T13:11:34.134Z,11.95
2018-08-25T13:14:05.212Z,12.45
2018-08-25T13:16:36.167Z,13.18
2018-08-25T13:19:07.345Z,12.73
2018-08-25T13:21:39.265Z,11.28
2018-08-25T13:24:09.100Z,11.80
2018-08-25T13:26:41.072Z,11.30
2018-08-25T13:29:10.959Z,11.17
2018-08-25T13:31:43.243Z,12.73
2018-08-25T13:34:13.108Z,11.83
2018-08-25T13:36:44.390Z,11.33
2018-08-25T13:39:15.044Z,11.40
2018-08-25T13:41:46.358Z,10.13
2018-08-25T13:44:17.100Z,11.73
2018-08-25T13:46:49.346Z,10.72
2018-08-25T13:49:19.305Z,11.07
2018-08-25T13:51:51.261Z,9.50
2018-08-25T13:54:21.198Z,10.47
2018-08-25T13:56:52.166Z,10.32
2018-08-25T13:59:23.130Z,10.03
2018-08-25T14:01:53.964Z,9.80
2018-08-25T14:04:25.518Z,9.75
2018-08-25T14:06:56.125Z,8.75
2018-08-25T14:09:27.295Z,8.98
2018-08-25T14:11:58.159Z,8.68
2018-08-25T14:14:29.224Z,6.97
2018-08-25T14:17:00.103Z,6.10
2018-08-25T14:19:31.145Z,5.30
2018-08-25T14:22:02.243Z,5.45
2018-08-25T14:24:33.206Z,5.37
2018-08-25T14:27:04.167Z,4.58
2018-08-25T14:29:35.147Z,4.53
2018-08-25T14:32:05.885Z,4.37
2018-08-25T14:34:36.052Z,4.30
2018-08-25T14:37:07.341Z,4.08
2018-08-25T14:39:38.654Z,4.45
2018-08-25T14:42:09.266Z,4.36
2018-08-25T14:44:40.273Z,4.50
2018-08-25T14:47:11.127Z,4.58
2018-08-25T14:49:42.330Z,5.08
2018-08-25T14:52:14.680Z,4.63
2018-08-25T14:54:49.674Z,5.57
2018-08-25T14:57:19.620Z,5.17
2018-08-25T14:59:49.623Z,4.87
2018-08-25T15:02:20.057Z,4.40
2018-08-25T15:04:50.320Z,5.00
2018-08-25T15:07:21.257Z,5.55
2018-08-25T15:09:51.157Z,5.12
2018-08-25T15:12:22.638Z,5.04
2018-08-25T15:14:52.594Z,4.50
2018-08-25T15:17:23.694Z,5.00
2018-08-25T15:19:54.278Z,4.90
2018-08-25T15:22:25.333Z,4.50
2018-08-25T15:24:56.138Z,4.53
2018-08-25T15:27:28.719Z,4.78
2018-08-25T15:29:58.545Z,3.87
2018-08-25T15:32:29.617Z,4.22
2018-08-25T15:35:00.113Z,4.55
2018-08-25T15:37:31.619Z,4.15
2018-08-25T15:40:02.119Z,3.62
2018-08-25T15:42:33.166Z,4.12
2018-08-25T15:45:03.981Z,3.70
2018-08-25T15:47:35.031Z,4.03
2018-08-25T15:50:06.104Z,4.15
2018-08-25T15:52:37.290Z,4.00
2018-08-25T15:55:08.986Z,3.85
2018-08-25T15:57:39.480Z,4.47
2018-08-25T16:00:14.286Z,5.05
2018-08-25T16:02:48.523Z,4.87
2018-08-25T16:05:20.885Z,4.00
2018-08-25T16:07:53.246Z,4.37
2018-08-25T16:10:24.185Z,4.17
2018-08-25T16:12:54.370Z,3.63
2018-08-25T16:15:24.159Z,4.40
2018-08-25T16:17:54.373Z,3.70
2018-08-25T16:20:24.333Z,3.95
2018-08-25T16:22:54.773Z,3.42
2018-08-25T16:25:25.398Z,3.90
2018-08-25T16:28:01.877Z,3.80
2018-08-25T16:30:31.891Z,3.80
2018-08-25T16:33:01.906Z,4.27
2018-08-25T16:35:32.218Z,4.77
2018-08-25T16:38:02.432Z,4.40
2018-08-25T16:40:32.391Z,4.50
2018-08-25T16:43:03.369Z,4.17
2018-08-25T16:45:34.105Z,3.90
2018-08-25T16:48:04.185Z,3.78
2018-08-25T16:50:34.184Z,3.80
2018-08-25T16:53:04.091Z,3.47
2018-08-25T16:55:34.850Z,3.40
2018-08-25T16:58:05.015Z,3.10
2018-08-25T17:00:35.064Z,3.27
2018-08-25T17:03:04.937Z,3.15
2018-08-25T17:05:37.115Z,3.92
2018-08-25T17:08:08.521Z,3.72
2018-08-25T17:10:38.906Z,3.23
2018-08-25T17:13:08.797Z,3.90
2018-08-25T17:15:40.959Z,4.00
2018-08-25T17:18:11.331Z,3.83
2018-08-25T17:20:42.297Z,3.33
2018-08-25T17:23:13.511Z,3.62
2018-08-25T17:25:44.320Z,3.37
2018-08-25T17:28:15.120Z,3.40
2018-08-25T17:30:46.112Z,3.25
2018-08-25T17:33:16.970Z,3.62
2018-08-25T17:35:48.170Z,3.65
2018-08-25T17:38:20.054Z,4.15
2018-08-25T17:40:52.117Z,4.62
2018-08-25T17:43:21.907Z,4.50
2018-08-25T17:45:51.941Z,4.25
2018-08-25T17:48:24.635Z,4.40
2018-08-25T17:50:54.470Z,4.17
2018-08-25T17:53:25.620Z,4.16
2018-08-25T17:55:56.142Z,4.15
2018-08-25T17:58:27.184Z,5.12
2018-08-25T18:00:58.029Z,4.50
2018-08-25T18:03:29.372Z,4.28
2018-08-25T18:06:00.450Z,6.72
2018-08-25T18:08:31.226Z,7.15
2018-08-25T18:11:02.175Z,8.95
2018-08-25T18:13:33.464Z,11.15
2018-08-25T18:16:04.139Z,15.72
2018-08-25T18:18:35.130Z,10.78
2018-08-25T18:21:06.184Z,7.87
2018-08-25T18:23:37.242Z,8.08
2018-08-25T18:26:08.337Z,7.87
2018-08-25T18:28:39.527Z,5.97
2018-08-25T18:31:10.146Z,5.62
2018-08-25T18:33:41.062Z,5.80
2018-08-25T18:36:12.076Z,4.55
2018-08-25T18:38:43.233Z,5.95
2018-08-25T18:41:14.103Z,6.60
2018-08-25T18:43:46.169Z,5.56
2018-08-25T18:46:16.380Z,5.33
2018-08-25T18:48:47.212Z,5.57
2018-08-25T18:51:17.135Z,6.83
2018-08-25T18:53:48.126Z,8.20
2018-08-25T18:56:19.001Z,6.30
2018-08-25T18:58:50.143Z,5.22
2018-08-25T19:01:20.992Z,5.10
2018-08-25T19:03:53.008Z,4.38
2018-08-25T19:06:23.055Z,4.30
2018-08-25T19:08:54.205Z,4.62
2018-08-25T19:11:25.160Z,5.35
2018-08-25T19:13:57.250Z,5.60
2018-08-25T19:16:27.141Z,7.20
2018-08-25T19:18:58.308Z,9.83
2018-08-25T19:21:29.276Z,9.53
2018-08-25T19:24:00.318Z,8.45
2018-08-25T19:26:31.309Z,8.53
2018-08-25T19:29:02.284Z,8.65
2018-08-25T19:31:32.665Z,9.37
2018-08-25T19:34:03.856Z,8.53
2018-08-25T19:36:33.981Z,9.65
2018-08-25T19:39:07.771Z,8.54
2018-08-25T19:41:38.140Z,9.23
2018-08-25T19:44:08.332Z,10.05
2018-08-25T19:46:39.569Z,10.03
2018-08-25T19:49:09.646Z,9.03
2018-08-25T19:51:40.169Z,11.20
2018-08-25T19:54:11.923Z,10.13
2018-08-25T19:56:42.248Z,12.23
2018-08-25T19:59:13.280Z,11.93
2018-08-25T20:01:44.522Z,12.58
2018-08-25T20:04:15.446Z,12.80
2018-08-25T20:06:46.297Z,13.40
2018-08-25T20:09:17.497Z,12.53
2018-08-25T20:11:51.008Z,12.40
2018-08-25T20:14:21.220Z,12.67
2018-08-25T20:16:51.125Z,12.70
2018-08-25T20:19:21.010Z,11.53
2018-08-25T20:21:51.916Z,11.45
2018-08-25T20:24:23.158Z,11.68
2018-08-25T20:26:54.285Z,11.38
2018-08-25T20:29:25.211Z,10.88
2018-08-25T20:31:56.209Z,11.24
2018-08-25T20:34:26.375Z,11.37
2018-08-25T20:36:57.414Z,11.40
2018-08-25T20:39:28.292Z,10.10
2018-08-25T20:41:59.455Z,9.55
2018-08-25T20:44:30.217Z,10.93
2018-08-25T20:47:01.538Z,11.97
2018-08-25T20:49:32.113Z,10.35
2018-08-25T20:52:03.918Z,10.30
2018-08-25T20:54:33.822Z,9.70
2018-08-25T20:57:05.130Z,9.74
2018-08-25T20:59:35.227Z,9.97
2018-08-25T21:02:06.442Z,9.43
2018-08-25T21:04:37.245Z,9.05
2018-08-25T21:07:13.585Z,8.00
2018-08-25T21:09:45.124Z,7.93
2018-08-25T21:12:15.098Z,7.57
2018-08-25T21:14:45.097Z,8.38
2018-08-25T21:17:15.015Z,8.10
2018-08-25T21:19:45.056Z,8.33
2018-08-25T21:22:15.331Z,7.03
2018-08-25T21:24:45.364Z,6.70
2018-08-25T21:27:16.257Z,6.72
2018-08-25T21:29:48.118Z,6.35
2018-08-25T21:32:18.077Z,6.20
2018-08-25T21:34:49.258Z,5.65
2018-08-25T21:37:20.195Z,5.87
2018-08-25T21:39:51.653Z,5.03
2018-08-25T21:42:22.546Z,5.14
2018-08-25T21:44:53.410Z,4.12
2018-08-25T21:47:24.268Z,4.05
2018-08-25T21:49:55.879Z,4.05
2018-08-25T21:52:25.941Z,3.60
2018-08-25T21:54:57.201Z,3.50
2018-08-25T21:57:31.022Z,3.48
2018-08-25T22:00:01.193Z,3.40
2018-08-25T22:02:31.345Z,3.42
2018-08-25T22:19:11.328Z,2.93
2018-08-25T22:21:41.166Z,2.50
2018-08-25T22:24:11.337Z,2.40
2018-08-25T22:26:41.333Z,2.27
2018-08-25T22:29:11.225Z,2.23
2018-08-25T22:31:41.455Z,2.80
2018-08-25T22:34:11.239Z,2.47
2018-08-25T22:36:41.318Z,2.70
2018-08-25T22:39:12.840Z,2.60
2018-08-25T22:41:42.745Z,2.60
2018-08-25T22:44:13.574Z,2.87
2018-08-25T22:46:43.466Z,2.73
2018-08-25T22:49:13.410Z,2.87
2018-08-25T22:51:43.254Z,2.60
2018-08-25T22:54:13.414Z,2.23
2018-08-25T22:56:43.514Z,2.67
2018-08-25T22:59:13.367Z,2.57
2018-08-25T23:01:43.310Z,2.33
2018-08-25T23:04:13.157Z,3.10
2018-08-25T23:06:43.196Z,3.03
2018-08-25T23:09:13.382Z,2.80
2018-08-25T23:11:48.422Z,2.47
2018-08-25T23:14:18.393Z,2.70
2018-08-25T23:16:48.294Z,2.50
2018-08-25T23:19:18.126Z,2.87
2018-08-25T23:21:48.236Z,2.63
2018-08-25T23:24:18.597Z,3.10
2018-08-25T23:26:48.501Z,3.00
2018-08-25T23:29:18.365Z,2.90
2018-08-25T23:31:48.279Z,2.90
2018-08-25T23:34:18.201Z,3.23
2018-08-25T23:36:48.459Z,4.00
2018-08-25T23:39:18.798Z,3.80
2018-08-25T23:41:48.686Z,3.50
2018-08-25T23:44:18.603Z,3.70
2018-08-25T23:46:48.826Z,3.53
2018-08-25T23:49:18.687Z,3.80
2018-08-25T23:51:48.853Z,4.33
2018-08-25T23:54:18.771Z,4.27
2018-08-25T23:56:48.748Z,4.00
2018-08-25T23:59:18.624Z,3.80
